Time;durP1;ratioP1;P1;durP2;ratioP2;P2;SDS_P1;SDS_P2;PMS_P1;PMS_P2;Temp;Humidity;BMP_temperature;BMP_pressure;BME280_temperature;BME280_humidity;BME280_pressure;Samples;Min_cycle;Max_cycle;Signal;HPM_P1;HPM_P2
2021/11/23 00:00:17;;;;;;;;;30.25;24.75;;;;;4.42;77.24;102475.34;5057866;28;45587;-61
2021/11/23 00:02:43;;;;;;;;;25.50;16.75;;;;;4.45;77.73;102490.84;5059860;28;45553;-61
2021/11/23 00:05:11;;;;;;;;;20.25;19.00;;;;;4.44;77.84;102481.41;5059916;28;45880;-61
2021/11/23 00:07:37;;;;;;;;;22.75;19.00;;;;;4.42;77.46;102479.63;5065844;28;45461;-61
2021/11/23 00:10:03;;;;;;;;;18.75;16.00;;;;;4.41;78.06;102473.59;5057668;28;45395;-61
2021/11/23 00:12:29;;;;;;;;;20.50;17.25;;;;;4.39;77.82;102472.66;5057499;28;45478;-61
2021/11/23 00:14:54;;;;;;;;;22.75;18.75;;;;;4.35;77.36;102465.69;5056772;28;45668;-61
2021/11/23 00:17:19;;;;;;;;;32.00;25.50;;;;;4.39;77.54;102477.81;5057594;28;45378;-61
2021/11/23 00:19:45;;;;;;;;;26.50;18.50;;;;;4.38;77.79;102473.50;5057466;28;45674;-61
2021/11/23 00:22:11;;;;;;;;;23.50;22.25;;;;;4.38;77.48;102480.34;5057388;28;46267;-61
2021/11/23 00:24:37;;;;;;;;;26.50;17.25;;;;;4.35;78.08;102473.41;5058774;28;45483;-62
2021/11/23 00:27:03;;;;;;;;;28.75;23.50;;;;;4.38;78.60;102464.91;5058766;28;45898;-62
2021/11/23 00:29:29;;;;;;;;;38.75;31.25;;;;;4.35;77.90;102476.00;5057556;28;45362;-62
2021/11/23 00:31:54;;;;;;;;;39.75;36.00;;;;;4.35;77.40;102459.69;5057309;28;45912;-61
2021/11/23 00:34:19;;;;;;;;;49.75;40.50;;;;;4.32;78.62;102467.31;5055906;28;45470;-61
2021/11/23 00:36:45;;;;;;;;;69.67;52.67;;;;;4.35;78.03;102465.69;5057578;28;45361;-61
2021/11/23 00:39:10;;;;;;;;;74.25;56.75;;;;;4.34;77.51;102474.25;5057032;28;45721;-61
2021/11/23 00:41:35;;;;;;;;;68.25;53.75;;;;;4.35;77.49;102472.56;5072195;28;47975;-61
2021/11/23 00:44:01;;;;;;;;;70.33;53.33;;;;;4.35;77.38;102463.13;5059360;28;45496;-60
2021/11/23 00:46:26;;;;;;;;;64.50;48.25;;;;;4.34;78.29;102476.81;5059670;28;45549;-61
2021/11/23 00:48:52;;;;;;;;;31.75;26.50;;;;;4.34;77.88;102475.97;5059278;28;45617;-59
2021/11/23 00:51:17;;;;;;;;;34.00;26.75;;;;;4.32;78.00;102486.22;5059211;28;45378;-61
2021/11/23 00:53:42;;;;;;;;;24.25;18.25;;;;;4.25;78.04;102477.47;5059360;28;45513;-61
2021/11/23 00:56:08;;;;;;;;;25.50;21.00;;;;;4.29;79.14;102483.56;5059510;28;45313;-61
2021/11/23 00:58:34;;;;;;;;;33.50;26.25;;;;;4.28;78.30;102489.53;5059373;28;45354;-61
2021/11/23 01:01:00;;;;;;;;;26.00;19.25;;;;;4.27;77.83;102477.50;5059075;28;46542;-61
2021/11/23 01:03:28;;;;;;;;;23.50;18.00;;;;;4.24;77.73;102473.16;5059335;28;45773;-59
2021/11/23 01:05:55;;;;;;;;;22.00;11.00;;;;;4.25;78.35;102479.19;5060721;28;45291;-62
2021/11/23 01:08:20;;;;;;;;;19.50;19.00;;;;;4.19;77.84;102474.72;5065414;28;45394;-59
2021/11/23 01:10:46;;;;;;;;;22.00;18.50;;;;;4.19;78.56;102485.00;5059484;28;45308;-61
2021/11/23 01:13:11;;;;;;;;;22.00;21.00;;;;;4.17;78.43;102481.53;5058765;28;45256;-61
2021/11/23 01:15:38;;;;;;;;;18.75;14.75;;;;;4.16;78.83;102482.34;5060543;28;45267;-60
2021/11/23 01:18:04;;;;;;;;;28.00;20.50;;;;;4.15;79.38;102480.63;5059056;28;45446;-60
2021/11/23 01:20:30;;;;;;;;;24.75;17.75;;;;;4.15;78.51;102475.47;5058873;28;46356;-60
2021/11/23 01:22:57;;;;;;;;;21.50;21.50;;;;;4.15;78.57;102479.75;5059187;28;45282;-60
2021/11/23 01:25:23;;;;;;;;;28.75;15.00;;;;;4.09;78.54;102474.44;5058956;28;45504;-60
2021/11/23 01:27:49;;;;;;;;;23.00;20.25;;;;;4.10;78.94;102476.19;5058812;28;45283;-60
2021/11/23 01:30:15;;;;;;;;;18.00;12.00;;;;;4.10;78.39;102468.47;5058865;28;45585;-60
2021/11/23 01:32:40;;;;;;;;;22.25;19.25;;;;;4.09;79.12;102469.31;5059299;28;45250;-60
2021/11/23 01:35:08;;;;;;;;;22.25;19.00;;;;;4.11;78.47;102471.06;5058744;28;45435;-60
2021/11/23 01:37:34;;;;;;;;;22.25;21.50;;;;;4.08;78.25;102481.28;5057661;28;45579;-60
2021/11/23 01:40:00;;;;;;;;;24.00;17.75;;;;;4.07;79.27;102479.56;5058962;28;47423;-61
2021/11/23 01:42:26;;;;;;;;;23.25;17.50;;;;;4.07;78.32;102484.69;5058842;28;45662;-60
2021/11/23 01:44:52;;;;;;;;;24.75;21.00;;;;;4.08;78.36;102491.59;5059134;28;45931;-60
2021/11/23 01:47:17;;;;;;;;;26.25;21.25;;;;;4.07;79.08;102489.84;5058937;28;45303;-59
2021/11/23 01:49:42;;;;;;;;;26.00;22.25;;;;;4.08;78.72;102493.28;5074294;27;46838;-59
2021/11/23 01:52:08;;;;;;;;;19.00;16.25;;;;;4.07;78.57;102497.56;5058977;28;45274;-59
2021/11/23 01:54:34;;;;;;;;;22.50;17.75;;;;;4.06;79.20;102492.38;5058757;28;45282;-59
2021/11/23 01:57:00;;;;;;;;;21.25;15.75;;;;;4.04;78.75;102494.03;5058240;28;45302;-59
2021/11/23 01:59:25;;;;;;;;;24.75;19.00;;;;;3.95;79.45;102481.78;5058764;28;45368;-60
2021/11/23 02:01:51;;;;;;;;;31.25;22.75;;;;;4.00;78.59;102497.31;5060590;28;45236;-61
2021/11/23 02:04:17;;;;;;;;;28.50;17.50;;;;;3.98;78.55;102494.72;5062165;28;45422;-61
2021/11/23 02:06:43;;;;;;;;;28.50;23.25;;;;;3.97;78.06;102500.69;5068454;28;45483;-61
2021/11/23 02:09:08;;;;;;;;;13.75;12.00;;;;;3.97;78.49;102490.41;5062153;28;45409;-61
2021/11/23 02:11:33;;;;;;;;;13.25;7.00;;;;;3.93;78.79;102489.44;5061796;28;45381;-61
2021/11/23 02:13:59;;;;;;;;;23.25;20.25;;;;;3.94;78.86;102498.03;5061869;28;45559;-61
2021/11/23 02:16:24;;;;;;;;;11.50;11.50;;;;;3.90;78.91;102494.53;5062816;28;45505;-60
2021/11/23 02:18:51;;;;;;;;;24.50;22.50;;;;;3.92;78.22;102492.84;5061351;28;46180;-60
2021/11/23 02:21:17;;;;;;;;;26.75;20.50;;;;;3.90;78.97;102494.53;5059298;28;45706;-60
2021/11/23 02:23:42;;;;;;;;;26.50;24.25;;;;;3.89;78.97;102495.34;5061324;28;45429;-61
2021/11/23 02:26:07;;;;;;;;;34.75;23.25;;;;;3.88;78.57;102493.59;5061190;28;45311;-61
2021/11/23 02:28:33;;;;;;;;;25.75;18.50;;;;;3.88;78.41;102506.47;5061309;28;46167;-61
2021/11/23 02:30:59;;;;;;;;;29.75;22.50;;;;;3.88;78.77;102490.16;5060064;28;45324;-59
2021/11/23 02:33:27;;;;;;;;;24.25;23.25;;;;;3.88;78.73;102496.19;5061581;28;45744;-59
2021/11/23 02:36:00;;;;;;;;;25.25;18.00;;;;;3.89;78.39;102489.34;5061553;28;45332;-59
2021/11/23 02:38:27;;;;;;;;;26.25;21.50;;;;;3.88;78.00;102492.75;5061222;28;46331;-59
2021/11/23 02:40:52;;;;;;;;;28.25;19.50;;;;;3.87;77.82;102494.44;5061232;28;45778;-60
2021/11/23 02:43:18;;;;;;;;;21.25;15.00;;;;;3.86;78.65;102497.84;5061398;28;45415;-60
2021/11/23 02:45:44;;;;;;;;;20.75;14.50;;;;;3.81;78.85;102489.13;5061244;28;45395;-59
2021/11/23 02:48:12;;;;;;;;;28.75;21.50;;;;;3.87;78.82;102491.00;5061255;28;45468;-59
2021/11/23 02:50:39;;;;;;;;;25.50;20.50;;;;;3.85;79.07;102488.38;5061319;28;45400;-60
2021/11/23 02:53:05;;;;;;;;;23.00;20.75;;;;;3.80;79.40;102489.94;5061295;28;45244;-59
2021/11/23 02:55:33;;;;;;;;;24.00;22.50;;;;;3.80;78.58;102484.78;5060823;28;45638;-59
2021/11/23 02:58:00;;;;;;;;;16.00;15.25;;;;;3.77;78.46;102488.97;5060871;28;45440;-60
2021/11/23 03:00:29;;;;;;;;;27.75;19.25;;;;;3.72;78.69;102480.25;5061168;28;45733;-60
2021/11/23 03:02:55;;;;;;;;;19.25;19.25;;;;;3.78;78.64;102490.72;5061060;28;45283;-59
2021/11/23 03:05:22;;;;;;;;;26.50;20.00;;;;;3.80;78.56;102489.94;5061055;28;45536;-59
2021/11/23 03:07:50;;;;;;;;;29.50;22.75;;;;;3.77;79.10;102486.41;5060981;28;46808;-60
2021/11/23 03:10:17;;;;;;;;;31.00;22.50;;;;;3.77;78.55;102495.00;5061030;28;45708;-59
2021/11/23 03:12:46;;;;;;;;;29.00;21.25;;;;;3.75;78.61;102488.06;5060962;28;45323;-59
2021/11/23 03:15:12;;;;;;;;;24.75;19.00;;;;;3.75;78.60;102480.34;5060414;28;45468;-59
2021/11/23 03:17:38;;;;;;;;;22.00;18.25;;;;;3.72;78.82;102481.13;5059664;28;47914;-59
2021/11/23 03:20:05;;;;;;;;;22.75;18.25;;;;;3.74;78.14;102483.75;5060555;28;45497;-60
2021/11/23 03:22:31;;;;;;;;;31.75;20.50;;;;;3.72;79.02;102478.56;5061148;28;45232;-60
2021/11/23 03:24:56;;;;;;;;;25.75;19.75;;;;;3.74;78.00;102473.47;5072605;28;45419;-61
2021/11/23 03:27:22;;;;;;;;;27.75;21.50;;;;;3.73;78.61;102464.88;5060755;28;46236;-61
2021/11/23 03:29:47;;;;;;;;;24.00;20.50;;;;;3.74;78.36;102468.31;5060488;28;45179;-61
2021/11/23 03:32:13;;;;;;;;;20.75;14.00;;;;;3.74;78.68;102466.63;5061292;28;45473;-61
2021/11/23 03:34:39;;;;;;;;;27.00;21.25;;;;;3.71;78.52;102463.09;5059187;28;45646;-61
2021/11/23 03:37:24;;;;;;;;;27.50;24.00;;;;;3.71;78.77;102468.25;5060731;28;45449;-62
2021/11/23 03:39:51;;;;;;;;;28.00;23.25;;;;;3.67;78.01;102468.16;5060440;28;45290;-61
2021/11/23 03:42:17;;;;;;;;;30.50;21.25;;;;;3.66;78.35;102463.84;5060531;28;45460;-61
2021/11/23 03:44:44;;;;;;;;;23.50;19.75;;;;;3.63;78.35;102461.19;5060388;28;45535;-61
2021/11/23 03:47:11;;;;;;;;;31.25;21.50;;;;;3.61;78.94;102461.97;5060591;28;46178;-59
2021/11/23 03:49:37;;;;;;;;;28.50;24.75;;;;;3.60;78.18;102453.41;5058698;28;45830;-60
2021/11/23 03:52:04;;;;;;;;;22.50;18.25;;;;;3.60;77.86;102455.06;5058238;28;45424;-59
2021/11/23 03:54:29;;;;;;;;;20.00;17.00;;;;;3.57;78.97;102466.13;5057690;28;45613;-59
2021/11/23 03:56:55;;;;;;;;;32.25;24.25;;;;;3.56;78.24;102461.81;5057653;28;46490;-59
2021/11/23 03:59:21;;;;;;;;;21.25;19.50;;;;;3.55;78.45;102470.38;5059927;28;45385;-59
2021/11/23 04:01:47;;;;;;;;;30.75;20.50;;;;;3.52;78.10;102464.28;5060313;28;45351;-59
2021/11/23 04:04:12;;;;;;;;;20.50;18.75;;;;;3.52;77.96;102465.13;5059478;28;45450;-60
2021/11/23 04:06:38;;;;;;;;;29.00;19.25;;;;;3.50;78.53;102461.66;5060117;28;45478;-59
2021/11/23 04:09:04;;;;;;;;;25.50;19.25;;;;;3.49;78.77;102467.63;5059961;28;45325;-58
2021/11/23 04:11:30;;;;;;;;;23.00;18.00;;;;;3.45;78.95;102459.78;5060231;28;45509;-59
2021/11/23 04:13:56;;;;;;;;;16.25;15.50;;;;;3.43;79.40;102456.31;5059681;28;45914;-58
2021/11/23 04:16:23;;;;;;;;;36.00;22.50;;;;;3.42;78.94;102457.13;5062368;28;46778;-59
2021/11/23 04:18:49;;;;;;;;;20.50;17.75;;;;;3.39;78.22;102465.59;5059612;28;45412;-59
2021/11/23 04:21:15;;;;;;;;;26.50;18.00;;;;;3.36;78.64;102461.25;5049064;28;45470;-59
2021/11/23 04:23:40;;;;;;;;;23.75;18.00;;;;;3.34;78.50;102465.47;5058016;28;45540;-59
2021/11/23 04:26:05;;;;;;;;;20.75;14.50;;;;;3.33;78.57;102466.28;5071679;28;46042;-58
2021/11/23 04:28:31;;;;;;;;;22.50;19.50;;;;;3.31;78.43;102456.81;5060536;28;45508;-58
2021/11/23 04:30:56;;;;;;;;;22.25;19.00;;;;;3.28;79.83;102460.16;5059795;28;45357;-59
2021/11/23 04:33:22;;;;;;;;;31.75;21.75;;;;;3.28;78.81;102456.72;5058875;28;45404;-59
2021/11/23 04:35:47;;;;;;;;;26.50;19.50;;;;;3.25;78.75;102457.50;5057797;28;45412;-59
2021/11/23 04:38:13;;;;;;;;;26.00;20.25;;;;;3.27;78.48;102453.28;5056278;28;45635;-59
2021/11/23 04:40:39;;;;;;;;;24.50;18.75;;;;;3.26;78.38;102448.97;5056737;28;45428;-60
2021/11/23 04:43:06;;;;;;;;;20.00;19.75;;;;;3.25;78.81;102452.38;5056866;28;45386;-61
2021/11/23 04:45:32;;;;;;;;;24.50;18.25;;;;;3.27;78.48;102457.53;5055126;28;47227;-60
2021/11/23 04:47:58;;;;;;;;;23.25;14.00;;;;;3.22;79.06;102453.97;5057227;28;45794;-60
2021/11/23 04:50:24;;;;;;;;;25.25;20.75;;;;;3.24;78.82;102462.59;5057695;28;45656;-61
2021/11/23 04:52:49;;;;;;;;;21.75;19.25;;;;;3.23;78.56;102451.44;5057266;28;45483;-61
2021/11/23 04:55:15;;;;;;;;;27.00;19.50;;;;;3.21;78.51;102465.06;5057277;28;47243;-60
2021/11/23 04:57:40;;;;;;;;;25.00;22.00;;;;;3.23;78.56;102466.00;5058783;28;45223;-60
2021/11/23 05:00:08;;;;;;;;;24.50;23.00;;;;;3.23;78.83;102464.28;5057157;28;45365;-61
2021/11/23 05:02:33;;;;;;;;;23.50;18.00;;;;;3.23;78.09;102461.72;5055357;28;45419;-60
2021/11/23 05:04:59;;;;;;;;;25.25;17.25;;;;;3.23;78.63;102459.16;5056797;28;45561;-61
2021/11/23 05:07:24;;;;;;;;;24.75;19.75;;;;;3.23;78.80;102458.28;5056676;28;45381;-60
2021/11/23 05:09:50;;;;;;;;;23.75;19.00;;;;;3.23;78.87;102463.41;5056760;28;45427;-60
2021/11/23 05:12:15;;;;;;;;;23.50;19.75;;;;;3.23;78.46;102463.41;5055235;28;45632;-60
2021/11/23 05:14:40;;;;;;;;;30.00;21.67;;;;;3.20;79.01;102453.91;5060004;28;45681;-59
2021/11/23 05:17:06;;;;;;;;;20.75;18.00;;;;;3.17;79.18;102460.66;5059254;28;45221;-58
2021/11/23 05:19:31;;;;;;;;;24.25;17.50;;;;;3.19;78.96;102464.13;5058698;28;45406;-58
2021/11/23 05:21:56;;;;;;;;;25.67;20.00;;;;;3.20;78.60;102471.00;5058751;28;45305;-58
2021/11/23 05:24:22;;;;;;;;;21.25;20.75;;;;;3.20;78.68;102465.88;5058937;28;46200;-58
2021/11/23 05:26:47;;;;;;;;;24.25;20.75;;;;;3.20;78.36;102466.75;5058496;28;45303;-58
2021/11/23 05:29:14;;;;;;;;;25.00;19.25;;;;;3.21;78.36;102460.81;5058855;28;45358;-59
2021/11/23 05:31:39;;;;;;;;;27.25;21.00;;;;;3.21;77.86;102463.38;5058886;28;45261;-58
2021/11/23 05:34:04;;;;;;;;;19.25;16.00;;;;;3.21;78.69;102462.50;5058662;28;45326;-58
2021/11/23 05:36:30;;;;;;;;;20.25;14.75;;;;;3.20;78.19;102469.31;5060286;28;45442;-58
2021/11/23 05:38:55;;;;;;;;;21.50;16.25;;;;;3.17;77.68;102466.66;5062394;28;45469;-58
2021/11/23 05:41:21;;;;;;;;;22.25;17.75;;;;;3.14;77.92;102470.84;5062099;28;45231;-59
2021/11/23 05:43:47;;;;;;;;;20.00;17.00;;;;;3.17;78.52;102465.78;5062024;28;45466;-58
2021/11/23 05:46:14;;;;;;;;;25.75;21.50;;;;;3.19;78.52;102480.41;5060893;28;45502;-58
2021/11/23 05:48:40;;;;;;;;;22.50;21.50;;;;;3.17;78.64;102483.75;5062176;28;45337;-61
2021/11/23 05:51:05;;;;;;;;;23.00;20.00;;;;;3.17;77.90;102488.91;5062099;28;45377;-61
2021/11/23 05:53:36;;;;;;;;;27.75;19.50;;;;;3.19;78.63;102484.69;5062000;28;45334;-61
2021/11/23 05:56:02;;;;;;;;;18.50;18.00;;;;;3.17;77.96;102481.19;5061970;28;45459;-61
2021/11/23 05:58:28;;;;;;;;;26.00;22.25;;;;;3.18;77.66;102480.38;5060359;28;45485;-61
2021/11/23 06:00:54;;;;;;;;;26.75;23.50;;;;;3.20;77.50;102483.84;5061929;28;45345;-61
2021/11/23 06:03:21;;;;;;;;;33.50;25.50;;;;;3.18;77.61;102483.81;5061629;28;46347;-61
2021/11/23 06:05:46;;;;;;;;;29.75;21.00;;;;;3.17;77.64;102484.63;5061470;28;45280;-60
2021/11/23 06:08:12;;;;;;;;;27.50;20.50;;;;;3.18;77.30;102486.38;5061524;28;45464;-60
2021/11/23 06:10:37;;;;;;;;;24.50;17.25;;;;;3.19;77.82;102485.56;5061723;28;45312;-58
2021/11/23 06:13:03;;;;;;;;;20.25;14.00;;;;;3.20;77.98;102492.44;5061365;28;46158;-59
2021/11/23 06:15:29;;;;;;;;;33.50;23.50;;;;;3.21;77.71;102490.78;5068296;28;45398;-60
2021/11/23 06:18:01;;;;;;;;;30.50;22.00;;;;;3.23;76.99;102497.69;5061555;28;45229;-61
2021/11/23 06:20:27;;;;;;;;;18.50;17.00;;;;;3.24;77.41;102494.28;5061583;28;45320;-59
2021/11/23 06:23:03;;;;;;;;;26.75;19.25;;;;;3.24;77.42;102490.84;5060489;28;46204;-64
2021/11/23 06:25:29;;;;;;;;;16.25;12.25;;;;;3.26;77.18;102486.63;5060076;28;45252;-62
2021/11/23 06:27:56;;;;;;;;;32.75;24.75;;;;;3.26;77.21;102484.94;5061154;28;45330;-61
2021/11/23 06:30:22;;;;;;;;;18.50;17.50;;;;;3.29;77.21;102492.72;5060728;28;45362;-61
2021/11/23 06:32:48;;;;;;;;;22.25;20.75;;;;;3.28;76.99;102488.41;5060789;28;45367;-59
2021/11/23 06:35:14;;;;;;;;;22.25;17.50;;;;;3.27;76.66;102486.69;5061130;28;45463;-58
2021/11/23 06:37:39;;;;;;;;;16.25;13.75;;;;;3.28;76.17;102491.00;5061133;28;45455;-62
2021/11/23 06:40:06;;;;;;;;;21.25;19.00;;;;;3.28;76.81;102493.56;5061149;28;45563;-59
2021/11/23 06:42:32;;;;;;;;;14.00;12.25;;;;;3.27;77.20;102494.38;5060508;28;45641;-58
2021/11/23 06:44:57;;;;;;;;;27.25;21.75;;;;;3.27;76.30;102503.78;5055876;28;45401;-58
2021/11/23 06:47:23;;;;;;;;;23.25;19.50;;;;;3.27;76.35;102502.09;5059054;28;45211;-58
2021/11/23 06:49:51;;;;;;;;;18.50;14.25;;;;;3.28;76.14;102505.53;5054216;28;45168;-58
2021/11/23 06:52:18;;;;;;;;;18.50;13.50;;;;;3.28;75.68;102524.38;5053944;28;47033;-58
2021/11/23 06:54:47;;;;;;;;;20.25;16.50;;;;;3.25;75.79;102514.03;5060748;28;45298;-58
2021/11/23 06:57:15;;;;;;;;;23.00;15.50;;;;;3.27;75.90;102522.66;5060687;28;45340;-58
2021/11/23 06:59:41;;;;;;;;;23.50;20.00;;;;;3.25;76.14;102518.28;5060987;27;45453;-58
2021/11/23 07:02:07;;;;;;;;;22.75;18.25;;;;;3.27;75.58;102519.22;5060453;28;46206;-57
2021/11/23 07:04:33;;;;;;;;;21.00;16.75;;;;;3.28;75.78;102526.97;5058776;28;45318;-57
2021/11/23 07:07:00;;;;;;;;;18.25;14.25;;;;;3.29;75.60;102527.84;5052590;28;45659;-57
2021/11/23 07:09:25;;;;;;;;;23.25;14.00;;;;;3.28;74.85;102526.09;5060839;28;45296;-56
2021/11/23 07:11:52;;;;;;;;;27.00;19.75;;;;;3.28;75.35;102520.94;5059982;28;46658;-57
2021/11/23 07:14:18;;;;;;;;;24.75;19.50;;;;;3.23;75.29;102528.53;5060184;28;45413;-56
2021/11/23 07:16:44;;;;;;;;;28.25;23.50;;;;;3.23;75.66;102527.66;5062572;28;45245;-58
2021/11/23 07:19:09;;;;;;;;;14.50;12.25;;;;;3.24;75.66;102531.97;5058483;28;45239;-58
2021/11/23 07:21:35;;;;;;;;;17.25;15.25;;;;;3.23;75.45;102525.94;5059564;28;46272;-57
2021/11/23 07:24:00;;;;;;;;;19.25;14.00;;;;;3.25;74.17;102534.56;5060359;28;45563;-58
2021/11/23 07:26:27;;;;;;;;;21.50;14.25;;;;;3.26;74.90;102535.44;5059623;28;45209;-58
2021/11/23 07:28:53;;;;;;;;;20.00;15.00;;;;;3.28;75.71;102534.66;5060303;28;46920;-58
2021/11/23 07:31:18;;;;;;;;;20.00;17.50;;;;;3.33;75.80;102540.81;5060085;28;46408;-58
2021/11/23 07:33:44;;;;;;;;;18.75;17.00;;;;;3.36;75.09;102545.16;5059749;28;45280;-57
2021/11/23 07:36:10;;;;;;;;;23.00;21.00;;;;;3.42;74.88;102552.22;5059768;28;45365;-57
2021/11/23 07:38:35;;;;;;;;;22.50;17.00;;;;;3.45;74.83;102557.44;5058724;28;45463;-57
2021/11/23 07:41:00;;;;;;;;;21.25;16.25;;;;;3.46;74.66;102554.06;5059802;28;45515;-57
2021/11/23 07:43:26;;;;;;;;;28.75;15.00;;;;;3.46;74.73;102556.63;5059869;28;45321;-57
2021/11/23 07:45:51;;;;;;;;;3.00;3.00;;;;;3.51;75.04;102555.94;5060076;28;45207;-58
2021/11/23 07:48:17;;;;;;;;;15.25;14.00;;;;;3.52;74.86;102570.53;5059595;28;45550;-57
2021/11/23 07:50:42;;;;;;;;;15.75;14.00;;;;;3.56;74.18;102572.34;5059513;28;45322;-57
2021/11/23 07:53:08;;;;;;;;;14.25;11.25;;;;;3.60;74.11;102570.75;5059713;28;45224;-58
2021/11/23 07:55:34;;;;;;;;;21.00;12.25;;;;;3.63;74.40;102574.31;5059813;28;45275;-57
2021/11/23 07:58:00;;;;;;;;;17.75;17.00;;;;;3.67;75.00;102568.44;5058865;28;45188;-58
2021/11/23 08:00:26;;;;;;;;;25.00;18.75;;;;;3.72;73.61;102571.13;5059129;28;45617;-57
2021/11/23 08:02:52;;;;;;;;;19.75;15.50;;;;;3.76;73.00;102584.94;5059705;28;45380;-58
2021/11/23 08:05:17;;;;;;;;;16.00;13.50;;;;;3.80;73.73;102579.94;5059841;28;45349;-57
2021/11/23 08:07:43;;;;;;;;;18.00;13.50;;;;;3.85;72.80;102591.25;5059674;28;45535;-58
2021/11/23 08:10:08;;;;;;;;;19.75;14.75;;;;;3.89;73.46;102589.63;5059337;28;46357;-57
2021/11/23 08:12:34;;;;;;;;;18.00;15.00;;;;;3.95;72.36;102597.53;5059666;28;45285;-58
2021/11/23 08:14:59;;;;;;;;;21.00;17.00;;;;;4.00;71.93;102589.94;5061759;28;45291;-58
2021/11/23 08:17:25;;;;;;;;;14.75;13.50;;;;;4.08;72.34;102603.91;5060043;28;45647;-58
2021/11/23 08:19:51;;;;;;;;;21.75;14.50;;;;;4.12;72.02;102605.75;5058978;28;45294;-58
2021/11/23 08:22:16;;;;;;;;;26.00;17.00;;;;;4.18;71.98;102603.34;5059674;28;45452;-58
2021/11/23 08:24:42;;;;;;;;;23.75;17.25;;;;;4.24;72.05;102609.53;5059854;28;45250;-58
2021/11/23 08:27:08;;;;;;;;;24.50;17.00;;;;;4.30;72.04;102602.81;5059565;28;45220;-58
2021/11/23 08:29:34;;;;;;;;;20.75;15.25;;;;;4.30;71.80;102603.69;5059329;28;46428;-58
2021/11/23 08:31:59;;;;;;;;;24.50;20.25;;;;;4.35;70.88;102609.84;5059397;28;45243;-58
2021/11/23 08:34:27;;;;;;;;;11.75;11.75;;;;;4.38;70.65;102604.75;5058177;28;45349;-58
2021/11/23 08:36:53;;;;;;;;;19.25;15.25;;;;;4.41;72.10;102604.00;5057661;28;45443;-58
2021/11/23 08:39:18;;;;;;;;;16.25;14.25;;;;;4.46;69.95;102610.16;5058476;28;46447;-58
2021/11/23 08:41:44;;;;;;;;;12.50;12.50;;;;;4.48;69.70;102599.06;5058422;28;45491;-58
2021/11/23 08:44:09;;;;;;;;;11.25;10.75;;;;;4.58;70.03;102597.59;5057875;28;45321;-58
2021/11/23 08:46:34;;;;;;;;;16.75;13.00;;;;;4.65;69.80;102594.38;5059001;28;45318;-58
2021/11/23 08:49:01;;;;;;;;;19.25;11.50;;;;;4.74;70.22;102593.72;5058112;28;46408;-58
2021/11/23 08:51:30;;;;;;;;;18.75;11.00;;;;;4.83;68.01;102601.72;5058756;28;45746;-58
2021/11/23 08:53:55;;;;;;;;;12.25;11.00;;;;;4.92;69.64;102604.50;5058719;28;45295;-58
2021/11/23 08:56:21;;;;;;;;;16.25;11.75;;;;;5.00;68.81;102596.94;5058668;28;45218;-58
2021/11/23 08:58:50;;;;;;;;;12.75;11.25;;;;;5.07;69.62;102602.31;5057880;28;46027;-58
2021/11/23 09:01:16;;;;;;;;;15.75;12.75;;;;;5.15;68.83;102594.75;5058665;28;45317;-58
2021/11/23 09:03:41;;;;;;;;;12.25;6.25;;;;;5.29;69.04;102600.28;5057875;28;45306;-58
2021/11/23 09:06:07;;;;;;;;;12.50;11.25;;;;;5.37;69.08;102580.69;5059572;28;45517;-58
2021/11/23 09:08:36;;;;;;;;;13.75;11.25;;;;;5.43;66.46;102584.31;5057879;28;46298;-58
2021/11/23 09:11:02;;;;;;;;;9.50;8.00;;;;;5.53;67.84;102589.66;5061565;28;45828;-58
2021/11/23 09:13:27;;;;;;;;;12.00;9.00;;;;;5.65;66.50;102589.94;5061729;28;45284;-58
2021/11/23 09:15:52;;;;;;;;;18.50;8.75;;;;;5.74;65.48;102587.56;5064404;28;45394;-58
2021/11/23 09:18:18;;;;;;;;;8.25;8.00;;;;;5.88;67.03;102595.59;5060824;28;47360;-58
2021/11/23 09:20:44;;;;;;;;;11.25;8.00;;;;;6.01;63.83;102597.66;5062172;28;45373;-58
2021/11/23 09:23:13;;;;;;;;;11.00;5.00;;;;;6.13;64.79;102595.31;5062015;28;45333;-58
2021/11/23 09:25:42;;;;;;;;;10.25;5.00;;;;;6.27;62.68;102604.22;5062372;28;45459;-58
2021/11/23 09:28:09;;;;;;;;;6.00;3.75;;;;;6.50;62.85;102611.53;5061980;28;46373;-59
2021/11/23 09:30:35;;;;;;;;;7.75;4.75;;;;;7.33;65.15;102605.25;5062538;28;45252;-58
2021/11/23 09:33:03;;;;;;;;;6.50;3.00;;;;;8.83;60.45;102608.06;5062177;27;45493;-58
2021/11/23 09:35:28;;;;;;;;;7.75;6.50;;;;;9.61;53.66;102611.31;5062621;28;45239;-59
2021/11/23 09:37:55;;;;;;;;;6.00;6.00;;;;;10.01;57.33;102609.78;5061925;28;46604;-59
2021/11/23 09:40:22;;;;;;;;;10.50;7.00;;;;;9.92;55.59;102620.13;5062750;28;45224;-58
2021/11/23 09:42:49;;;;;;;;;7.00;7.00;;;;;9.76;57.74;102611.38;5062001;28;45414;-58
2021/11/23 09:45:16;;;;;;;;;8.50;7.50;;;;;10.76;57.60;102609.19;5062340;28;45259;-59
2021/11/23 09:47:42;;;;;;;;;8.75;6.75;;;;;10.95;51.49;102610.94;5061439;28;45388;-58
2021/11/23 09:50:08;;;;;;;;;7.00;4.00;;;;;10.60;53.21;102618.69;5062322;28;45226;-56
2021/11/23 09:52:35;;;;;;;;;4.25;3.00;;;;;10.30;53.79;102616.88;5061761;28;45290;-59
2021/11/23 09:55:00;;;;;;;;;9.00;6.50;;;;;10.43;56.21;102618.66;5061934;28;45532;-59
2021/11/23 09:57:26;;;;;;;;;7.25;5.25;;;;;10.96;54.51;102615.28;5061466;28;46288;-58
2021/11/23 09:59:51;;;;;;;;;4.50;4.50;;;;;10.82;54.19;102612.69;5061391;28;45215;-59
2021/11/23 10:02:28;;;;;;;;;6.50;5.25;;;;;10.80;53.43;102618.72;5062038;28;45495;-59
2021/11/23 10:05:03;;;;;;;;;10.75;4.00;;;;;11.20;53.92;102610.09;5062060;28;45317;-56
2021/11/23 10:07:37;;;;;;;;;6.50;5.00;;;;;11.68;52.04;102616.13;5061892;28;45464;-59
2021/11/23 10:10:24;;;;;;;;;8.00;5.25;;;;;13.01;48.87;102608.56;5061637;28;46012;-57
2021/11/23 10:13:00;;;;;;;;;7.75;4.50;;;;;13.17;51.82;102603.19;5061701;28;45289;-57
2021/11/23 10:15:27;;;;;;;;;4.00;4.00;;;;;12.46;50.24;102595.00;5063792;28;46312;-56
2021/11/23 10:18:08;;;;;;;;;5.50;4.50;;;;;11.82;45.56;102598.78;5061617;28;46021;-59
2021/11/23 10:20:44;;;;;;;;;4.00;4.00;;;;;12.46;51.15;102597.63;5061471;28;45283;-59
2021/11/23 10:23:18;;;;;;;;;5.50;4.25;;;;;13.29;48.30;102587.47;5061065;28;45389;-59
2021/11/23 10:25:46;;;;;;;;;6.00;3.50;;;;;12.98;48.53;102592.91;5061546;28;45352;-58
2021/11/23 10:28:12;;;;;;;;;4.00;3.00;;;;;12.79;45.48;102581.72;5061244;28;47405;-59
2021/11/23 10:30:40;;;;;;;;;4.25;2.50;;;;;12.63;46.11;102587.09;5061601;28;45208;-59
2021/11/23 10:33:06;;;;;;;;;5.00;3.75;;;;;13.01;48.33;102582.47;5061393;28;45520;-59
2021/11/23 10:35:32;;;;;;;;;7.75;4.25;;;;;14.14;45.48;102591.75;5061447;28;45448;-57
2021/11/23 10:37:59;;;;;;;;;3.25;1.00;;;;;13.70;44.44;102579.22;5060978;28;46450;-57
2021/11/23 10:40:28;;;;;;;;;8.50;3.00;;;;;12.90;45.49;102580.81;5061313;28;45662;-57
2021/11/23 10:42:56;;;;;;;;;3.75;2.00;;;;;12.13;42.30;102572.56;5061025;28;45347;-57
2021/11/23 10:45:22;;;;;;;;;2.75;1.75;;;;;11.74;44.82;102582.25;5061448;28;45519;-57
2021/11/23 10:47:49;;;;;;;;;3.50;1.00;;;;;12.20;47.14;102584.69;5060617;28;46687;-58
2021/11/23 10:50:16;;;;;;;;;3.25;2.25;;;;;12.82;46.66;102567.84;5060924;28;45304;-57
2021/11/23 10:52:45;;;;;;;;;4.75;2.00;;;;;12.79;46.42;102571.31;5060470;28;45309;-57
2021/11/23 10:55:17;;;;;;;;;2.00;2.00;;;;;14.20;44.44;102575.97;5060561;28;45525;-57
2021/11/23 10:57:43;;;;;;;;;3.00;1.75;;;;;14.26;45.38;102568.06;5060303;28;45601;-58
2021/11/23 11:00:11;;;;;;;;;5.00;3.25;;;;;13.59;45.10;102568.88;5060351;28;45708;-58
2021/11/23 11:02:41;;;;;;;;;1.75;0.75;;;;;14.45;40.38;102554.78;5060498;28;45307;-58
2021/11/23 11:05:14;;;;;;;;;5.50;4.00;;;;;15.03;43.76;102559.97;5060079;28;45478;-58
2021/11/23 11:07:40;;;;;;;;;3.00;1.75;;;;;14.76;39.48;102556.00;5059952;28;45581;-58
2021/11/23 11:10:08;;;;;;;;;2.00;2.00;;;;;14.26;38.51;102557.59;5060224;28;45272;-58
2021/11/23 11:12:35;;;;;;;;;2.00;1.25;;;;;13.79;41.30;102562.56;5060371;28;45299;-58
2021/11/23 11:15:03;;;;;;;;;1.75;0.75;;;;;15.23;39.03;102553.50;5066864;28;45222;-58